Time;durP1;ratioP1;P1;durP2;ratioP2;P2;SDS_P1;SDS_P2;PMS_P1;PMS_P2;Temp;Humidity;BMP_temperature;BMP_pressure;BME280_temperature;BME280_humidity;BME280_pressure;Samples;Min_cycle;Max_cycle;Signal;HPM_P1;HPM_P2
2023/04/16 00:00:18;;;;;;;11.50;9.07;;;;;;;;;;5113447;28;20458;-71
2023/04/16 00:02:45;;;;;;;16.57;10.97;;;;;;;;;;5113085;28;20481;-71
2023/04/16 00:05:12;;;;;;;12.67;10.10;;;;;;;;;;5113319;28;20960;-72
2023/04/16 00:07:39;;;;;;;15.03;10.30;;;;;;;;;;5113530;28;20500;-71
2023/04/16 00:10:07;;;;;;;11.20;9.03;;;;;;;;;;5113608;28;20954;-71
2023/04/16 00:12:35;;;;;;;13.30;9.60;;;;;;;;;;5113279;28;20481;-71
2023/04/16 00:15:04;;;;;;;16.27;9.20;;;;;;;;;;5113300;28;20456;-71
2023/04/16 00:17:31;;;;;;;13.83;8.70;;;;;;;;;;5113444;28;20453;-71
2023/04/16 00:19:58;;;;;;;16.30;9.80;;;;;;;;;;5113190;28;20449;-71
2023/04/16 00:22:25;;;;;;;14.90;9.93;;;;;;;;;;5113207;28;20474;-71
2023/04/16 00:24:52;;;;;;;9.03;8.00;;;;;;;;;;5113045;28;20460;-71
2023/04/16 00:27:19;;;;;;;13.00;8.63;;;;;;;;;;5113313;28;20488;-71
2023/04/16 00:29:47;;;;;;;11.03;7.63;;;;;;;;;;5113222;28;20561;-71
2023/04/16 00:32:15;;;;;;;12.47;7.70;;;;;;;;;;5113240;28;20476;-71
2023/04/16 00:34:42;;;;;;;14.10;8.70;;;;;;;;;;5112912;28;20974;-72
2023/04/16 00:37:09;;;;;;;12.50;8.83;;;;;;;;;;5114275;28;20450;-71
2023/04/16 00:39:37;;;;;;;11.80;7.70;;;;;;;;;;5117295;28;20507;-71
2023/04/16 00:42:04;;;;;;;12.97;8.30;;;;;;;;;;5117146;28;20478;-71
2023/04/16 00:44:33;;;;;;;10.40;7.93;;;;;;;;;;5116810;28;20457;-71
2023/04/16 00:47:00;;;;;;;11.07;8.00;;;;;;;;;;5117151;28;20492;-71
2023/04/16 00:49:29;;;;;;;10.60;8.27;;;;;;;;;;5116897;28;20453;-71
2023/04/16 00:51:57;;;;;;;9.80;7.83;;;;;;;;;;5116938;28;20469;-71
2023/04/16 00:54:25;;;;;;;12.77;8.40;;;;;;;;;;5116792;28;20449;-71
2023/04/16 00:56:52;;;;;;;12.73;8.23;;;;;;;;;;5116855;28;20441;-71
2023/04/16 00:59:20;;;;;;;13.13;9.70;;;;;;;;;;5116909;28;20446;-71
2023/04/16 01:01:47;;;;;;;10.63;8.10;;;;;;;;;;5116754;28;20978;-71
2023/04/16 01:04:14;;;;;;;10.63;7.60;;;;;;;;;;5116138;28;20449;-71
2023/04/16 01:06:43;;;;;;;10.70;8.20;;;;;;;;;;5116812;28;20450;-71
2023/04/16 01:09:10;;;;;;;10.60;8.20;;;;;;;;;;5116769;28;20453;-71
2023/04/16 01:11:38;;;;;;;11.70;7.67;;;;;;;;;;5116690;28;20897;-71
2023/04/16 01:14:05;;;;;;;11.33;7.37;;;;;;;;;;5116410;28;20457;-71
2023/04/16 01:16:33;;;;;;;10.23;8.63;;;;;;;;;;5116430;28;20802;-71
2023/04/16 01:19:00;;;;;;;10.80;7.80;;;;;;;;;;5116605;28;20449;-71
2023/04/16 01:21:28;;;;;;;11.83;7.70;;;;;;;;;;5116311;28;20480;-71
2023/04/16 01:23:55;;;;;;;9.20;7.70;;;;;;;;;;5116270;28;20463;-71
2023/04/16 01:26:23;;;;;;;8.80;7.60;;;;;;;;;;5116483;28;20452;-71
2023/04/16 01:28:50;;;;;;;13.20;9.23;;;;;;;;;;5116256;28;21001;-72
2023/04/16 01:31:17;;;;;;;9.73;7.63;;;;;;;;;;5116232;27;20456;-70
2023/04/16 01:33:44;;;;;;;10.10;8.60;;;;;;;;;;5116109;28;20960;-72
2023/04/16 01:36:11;;;;;;;9.40;7.43;;;;;;;;;;5116179;28;20445;-71
2023/04/16 01:38:39;;;;;;;10.20;8.00;;;;;;;;;;5116235;28;20442;-71
2023/04/16 01:41:07;;;;;;;8.67;6.83;;;;;;;;;;5116108;28;20529;-71
2023/04/16 01:43:34;;;;;;;10.63;7.53;;;;;;;;;;5115797;28;20454;-72
2023/04/16 01:46:11;;;;;;;8.60;7.00;;;;;;;;;;5115892;28;20473;-71
2023/04/16 01:48:40;;;;;;;10.30;6.90;;;;;;;;;;5115021;28;20492;-71
2023/04/16 01:51:07;;;;;;;10.50;7.53;;;;;;;;;;5115821;28;20450;-70
2023/04/16 01:53:34;;;;;;;9.00;6.77;;;;;;;;;;5115571;28;20449;-71
2023/04/16 01:56:02;;;;;;;10.27;7.30;;;;;;;;;;5115425;28;20469;-71
2023/04/16 01:58:29;;;;;;;11.40;6.40;;;;;;;;;;5115738;28;20450;-71
2023/04/16 02:00:57;;;;;;;12.13;7.87;;;;;;;;;;5115752;28;20450;-71
2023/04/16 02:03:24;;;;;;;10.60;7.43;;;;;;;;;;5115241;28;20473;-71
2023/04/16 02:05:51;;;;;;;10.97;8.47;;;;;;;;;;5115632;27;20445;-71
2023/04/16 02:08:18;;;;;;;9.83;7.90;;;;;;;;;;5115429;28;21063;-71
2023/04/16 02:10:46;;;;;;;12.23;7.00;;;;;;;;;;5115697;27;20450;-71
2023/04/16 02:13:15;;;;;;;9.40;6.93;;;;;;;;;;5115565;28;20466;-71
2023/04/16 02:15:46;;;;;;;12.40;8.90;;;;;;;;;;5115279;28;20939;-71
2023/04/16 02:18:13;;;;;;;7.77;6.97;;;;;;;;;;5115360;28;20445;-71
2023/04/16 02:20:41;;;;;;;11.03;7.73;;;;;;;;;;5115380;28;20449;-71
2023/04/16 02:23:08;;;;;;;9.80;6.47;;;;;;;;;;5115182;28;20816;-71
2023/04/16 02:25:39;;;;;;;7.63;6.40;;;;;;;;;;5114923;28;20492;-71
2023/04/16 02:28:07;;;;;;;11.93;7.23;;;;;;;;;;5115081;28;20493;-71
2023/04/16 02:30:35;;;;;;;6.97;5.30;;;;;;;;;;5115363;28;20458;-71
2023/04/16 02:33:04;;;;;;;7.93;6.63;;;;;;;;;;5115101;28;20466;-71
2023/04/16 02:35:31;;;;;;;9.07;7.33;;;;;;;;;;5114679;28;20544;-71
2023/04/16 02:37:58;;;;;;;11.70;7.20;;;;;;;;;;5115128;28;20467;-71
2023/04/16 02:40:25;;;;;;;10.00;7.73;;;;;;;;;;5114926;28;20454;-72
2023/04/16 02:42:53;;;;;;;7.17;6.37;;;;;;;;;;5114948;28;20474;-71
2023/04/16 02:45:20;;;;;;;7.53;6.00;;;;;;;;;;5114708;28;20464;-71
2023/04/16 02:47:48;;;;;;;7.60;6.50;;;;;;;;;;5114794;28;20482;-72
2023/04/16 02:50:16;;;;;;;9.17;6.00;;;;;;;;;;5114546;28;20457;-71
2023/04/16 02:52:43;;;;;;;7.03;5.70;;;;;;;;;;5114739;28;20477;-71
2023/04/16 02:55:11;;;;;;;6.40;5.33;;;;;;;;;;5114396;28;20450;-72
2023/04/16 02:57:38;;;;;;;13.70;6.80;;;;;;;;;;5114795;28;20449;-71
2023/04/16 03:00:06;;;;;;;6.53;5.40;;;;;;;;;;5114466;28;20459;-71
2023/04/16 03:02:33;;;;;;;10.50;6.27;;;;;;;;;;5113880;28;20889;-71
2023/04/16 03:05:01;;;;;;;9.30;6.70;;;;;;;;;;5114365;28;20822;-71
2023/04/16 03:07:29;;;;;;;7.80;5.83;;;;;;;;;;5114392;28;20464;-71
2023/04/16 03:09:56;;;;;;;7.60;6.10;;;;;;;;;;5114263;28;20483;-71
2023/04/16 03:12:23;;;;;;;11.50;7.80;;;;;;;;;;5114148;28;20474;-71
2023/04/16 03:14:51;;;;;;;12.27;7.43;;;;;;;;;;5114011;28;20453;-72
2023/04/16 03:17:18;;;;;;;10.83;6.67;;;;;;;;;;5114093;28;20450;-72
2023/04/16 03:19:45;;;;;;;9.50;7.40;;;;;;;;;;5114399;28;20450;-71
2023/04/16 03:22:14;;;;;;;12.00;8.97;;;;;;;;;;5114357;28;20465;-71
2023/04/16 03:24:41;;;;;;;9.40;7.07;;;;;;;;;;5114196;28;20930;-71
2023/04/16 03:27:08;;;;;;;10.83;7.90;;;;;;;;;;5114121;28;20454;-71
2023/04/16 03:29:37;;;;;;;11.50;7.00;;;;;;;;;;5113903;28;20482;-71
2023/04/16 03:32:04;;;;;;;12.23;8.20;;;;;;;;;;5114418;28;20887;-72
2023/04/16 03:34:31;;;;;;;11.67;7.90;;;;;;;;;;5113618;28;20544;-72
2023/04/16 03:36:59;;;;;;;12.23;7.80;;;;;;;;;;5113940;28;20540;-72
2023/04/16 03:39:27;;;;;;;14.53;8.97;;;;;;;;;;5113880;28;20525;-72
2023/04/16 03:41:54;;;;;;;13.90;9.30;;;;;;;;;;5113692;28;20473;-72
2023/04/16 03:44:21;;;;;;;13.43;8.53;;;;;;;;;;5113405;28;20476;-72
2023/04/16 03:46:48;;;;;;;10.83;8.10;;;;;;;;;;5113818;28;20458;-72
2023/04/16 03:49:16;;;;;;;14.70;9.73;;;;;;;;;;5113660;28;20485;-72
2023/04/16 03:51:43;;;;;;;10.00;7.97;;;;;;;;;;5113697;28;20470;-72
2023/04/16 03:54:10;;;;;;;16.83;9.40;;;;;;;;;;5113560;28;20456;-72
2023/04/16 03:56:40;;;;;;;14.33;9.70;;;;;;;;;;5113532;28;20553;-72
2023/04/16 03:59:07;;;;;;;11.73;8.27;;;;;;;;;;5113606;28;20450;-72
2023/04/16 04:01:34;;;;;;;12.77;9.27;;;;;;;;;;5113569;28;20496;-72
2023/04/16 04:04:02;;;;;;;14.77;10.07;;;;;;;;;;5112994;28;20453;-72
2023/04/16 04:06:29;;;;;;;14.30;9.90;;;;;;;;;;5113601;28;20507;-72
2023/04/16 04:08:56;;;;;;;12.17;8.80;;;;;;;;;;5113565;28;20493;-72
2023/04/16 04:11:23;;;;;;;12.40;8.70;;;;;;;;;;5113214;28;20462;-72
2023/04/16 04:13:52;;;;;;;10.20;8.60;;;;;;;;;;5113269;28;20446;-72
2023/04/16 04:16:19;;;;;;;12.23;8.70;;;;;;;;;;5113338;28;20450;-72
2023/04/16 04:18:46;;;;;;;14.20;9.93;;;;;;;;;;5113491;28;20440;-72
2023/04/16 04:21:13;;;;;;;15.60;10.90;;;;;;;;;;5113416;28;20545;-73
2023/04/16 04:23:41;;;;;;;14.17;10.20;;;;;;;;;;5113050;28;20446;-72
2023/04/16 04:26:08;;;;;;;16.07;9.80;;;;;;;;;;5113442;28;20445;-72
2023/04/16 04:28:36;;;;;;;15.50;9.60;;;;;;;;;;5113241;28;20485;-72
2023/04/16 04:31:04;;;;;;;15.17;9.90;;;;;;;;;;5113486;28;20453;-72
2023/04/16 04:33:31;;;;;;;15.77;10.70;;;;;;;;;;5113417;28;20445;-72
2023/04/16 04:35:58;;;;;;;13.00;10.57;;;;;;;;;;5113330;28;20927;-72
2023/04/16 04:38:26;;;;;;;16.23;10.37;;;;;;;;;;5113456;28;20438;-72
2023/04/16 04:40:53;;;;;;;12.20;8.90;;;;;;;;;;5113478;28;20962;-72
2023/04/16 04:43:20;;;;;;;16.93;10.33;;;;;;;;;;5113091;28;20500;-73
2023/04/16 04:45:48;;;;;;;11.37;8.77;;;;;;;;;;5113340;28;20958;-72
2023/04/16 04:48:16;;;;;;;19.23;9.33;;;;;;;;;;5112845;28;20483;-71
2023/04/16 04:50:45;;;;;;;15.33;9.53;;;;;;;;;;5113310;28;20947;-71
2023/04/16 04:53:13;;;;;;;14.67;12.07;;;;;;;;;;5112886;28;20469;-71
2023/04/16 04:55:41;;;;;;;21.57;15.07;;;;;;;;;;5112693;28;20454;-71
2023/04/16 04:58:08;;;;;;;13.80;9.83;;;;;;;;;;5113270;28;20446;-71
2023/04/16 05:00:36;;;;;;;11.77;9.20;;;;;;;;;;5113155;28;20456;-71
2023/04/16 05:03:04;;;;;;;13.80;9.57;;;;;;;;;;5112628;28;20505;-71
2023/04/16 05:05:32;;;;;;;14.20;10.27;;;;;;;;;;5112705;28;20950;-71
2023/04/16 05:07:59;;;;;;;11.17;9.13;;;;;;;;;;5113021;28;20957;-71
2023/04/16 05:10:27;;;;;;;14.13;8.73;;;;;;;;;;5112916;28;20472;-71
2023/04/16 05:12:54;;;;;;;11.83;8.40;;;;;;;;;;5112993;28;20466;-71
2023/04/16 05:15:21;;;;;;;12.77;9.77;;;;;;;;;;5112799;28;20445;-71
2023/04/16 05:17:48;;;;;;;11.40;9.20;;;;;;;;;;5112970;28;20445;-71
2023/04/16 05:20:15;;;;;;;11.83;8.80;;;;;;;;;;5112877;28;20819;-71
2023/04/16 05:22:44;;;;;;;12.13;8.73;;;;;;;;;;5112830;28;20481;-71
2023/04/16 05:25:11;;;;;;;12.73;9.70;;;;;;;;;;5115026;28;20457;-71
2023/04/16 05:27:38;;;;;;;10.10;8.60;;;;;;;;;;5116608;28;20472;-71
2023/04/16 05:30:06;;;;;;;12.20;8.23;;;;;;;;;;5116321;28;20485;-71
2023/04/16 05:32:33;;;;;;;11.37;8.00;;;;;;;;;;5116125;28;20469;-71
2023/04/16 05:35:00;;;;;;;11.40;8.97;;;;;;;;;;5116157;28;20454;-71
2023/04/16 05:37:27;;;;;;;11.97;8.67;;;;;;;;;;5116154;28;20822;-71
2023/04/16 05:39:56;;;;;;;8.40;7.30;;;;;;;;;;5116382;28;20528;-71
2023/04/16 05:42:23;;;;;;;8.43;7.00;;;;;;;;;;5116317;27;20967;-72
2023/04/16 05:44:51;;;;;;;9.73;7.60;;;;;;;;;;5116150;28;20457;-74
2023/04/16 05:47:18;;;;;;;12.23;8.63;;;;;;;;;;5116181;28;20883;-72
2023/04/16 05:49:45;;;;;;;8.97;7.83;;;;;;;;;;5116332;28;20481;-72
2023/04/16 05:52:13;;;;;;;9.33;7.47;;;;;;;;;;5115771;28;20473;-73
2023/04/16 05:54:41;;;;;;;10.33;8.00;;;;;;;;;;5115831;28;20464;-72
2023/04/16 05:57:09;;;;;;;10.20;8.60;;;;;;;;;;5116168;28;20931;-72
2023/04/16 05:59:36;;;;;;;12.40;9.00;;;;;;;;;;5115807;28;20497;-73
2023/04/16 06:02:03;;;;;;;19.50;13.30;;;;;;;;;;5115758;28;20477;-73
2023/04/16 06:04:31;;;;;;;10.80;8.60;;;;;;;;;;5115438;28;20456;-72
2023/04/16 06:06:58;;;;;;;11.33;8.50;;;;;;;;;;5116090;28;20464;-72
2023/04/16 06:09:25;;;;;;;10.67;8.70;;;;;;;;;;5115912;28;20493;-72
2023/04/16 06:11:52;;;;;;;11.30;8.60;;;;;;;;;;5115955;28;20462;-72
2023/04/16 06:14:21;;;;;;;10.67;8.63;;;;;;;;;;5115943;27;20454;-73
2023/04/16 06:16:48;;;;;;;9.60;7.10;;;;;;;;;;5116190;28;20450;-73
2023/04/16 06:19:15;;;;;;;11.03;8.70;;;;;;;;;;5116665;28;20446;-73
2023/04/16 06:21:42;;;;;;;10.33;8.57;;;;;;;;;;5116095;28;20477;-72
2023/04/16 06:24:09;;;;;;;10.67;8.30;;;;;;;;;;5116078;28;20454;-72
2023/04/16 06:26:36;;;;;;;12.60;9.50;;;;;;;;;;5116204;28;20825;-72
2023/04/16 06:29:03;;;;;;;10.70;7.37;;;;;;;;;;5115725;28;20485;-72
2023/04/16 06:31:32;;;;;;;10.70;7.67;;;;;;;;;;5115511;28;20465;-72
2023/04/16 06:34:00;;;;;;;10.37;8.33;;;;;;;;;;5115400;27;20473;-72
2023/04/16 06:36:27;;;;;;;8.30;7.20;;;;;;;;;;5115114;28;20506;-72
2023/04/16 06:38:55;;;;;;;9.13;7.10;;;;;;;;;;5115619;28;20452;-72
2023/04/16 06:41:24;;;;;;;9.20;6.23;;;;;;;;;;5115319;28;20505;-72
2023/04/16 06:43:51;;;;;;;13.50;7.70;;;;;;;;;;5115047;28;20903;-73
2023/04/16 06:46:18;;;;;;;10.33;7.47;;;;;;;;;;5115145;28;20446;-72
2023/04/16 06:48:47;;;;;;;8.87;7.20;;;;;;;;;;5115344;28;20483;-72
2023/04/16 06:51:14;;;;;;;9.37;7.27;;;;;;;;;;5115189;28;20547;-72
2023/04/16 06:53:42;;;;;;;9.30;7.30;;;;;;;;;;5115254;28;20980;-72
2023/04/16 06:56:09;;;;;;;10.30;8.90;;;;;;;;;;5114958;27;20454;-72
2023/04/16 06:58:36;;;;;;;7.00;6.30;;;;;;;;;;5115331;28;20464;-72
2023/04/16 07:01:04;;;;;;;6.13;5.47;;;;;;;;;;5115009;28;20453;-72
2023/04/16 07:03:31;;;;;;;5.90;5.03;;;;;;;;;;5114369;28;20461;-72
2023/04/16 07:06:00;;;;;;;6.40;5.40;;;;;;;;;;5114881;28;20446;-72
2023/04/16 07:08:27;;;;;;;6.60;5.60;;;;;;;;;;5114378;28;20536;-73
2023/04/16 07:10:54;;;;;;;8.13;6.50;;;;;;;;;;5114738;28;20977;-72
2023/04/16 07:13:22;;;;;;;9.67;6.90;;;;;;;;;;5114342;28;20569;-73
2023/04/16 07:15:49;;;;;;;5.00;4.50;;;;;;;;;;5114445;28;20450;-72
2023/04/16 07:18:16;;;;;;;6.30;4.93;;;;;;;;;;5114475;28;20552;-72
2023/04/16 07:20:43;;;;;;;8.30;5.63;;;;;;;;;;5114351;28;20449;-72
2023/04/16 07:23:12;;;;;;;8.63;6.50;;;;;;;;;;5114136;28;20556;-72
2023/04/16 07:25:40;;;;;;;5.33;4.83;;;;;;;;;;5114069;28;20480;-72
2023/04/16 07:28:07;;;;;;;5.67;5.07;;;;;;;;;;5114220;28;20449;-72
2023/04/16 07:30:34;;;;;;;6.13;5.50;;;;;;;;;;5113969;28;20478;-73
2023/04/16 07:33:02;;;;;;;7.33;5.87;;;;;;;;;;5114053;28;20465;-73
2023/04/16 07:35:29;;;;;;;7.37;5.03;;;;;;;;;;5113746;28;20453;-73
2023/04/16 07:37:56;;;;;;;6.20;5.60;;;;;;;;;;5114123;28;20456;-73
2023/04/16 07:40:25;;;;;;;6.50;5.63;;;;;;;;;;5113897;28;20938;-73
2023/04/16 07:42:52;;;;;;;5.73;5.13;;;;;;;;;;5114015;28;20470;-72
2023/04/16 07:45:19;;;;;;;5.97;5.37;;;;;;;;;;5113820;28;20833;-72
2023/04/16 07:47:46;;;;;;;4.97;4.20;;;;;;;;;;5113390;28;20450;-72
2023/04/16 07:50:15;;;;;;;4.43;4.03;;;;;;;;;;5113993;28;20572;-72
2023/04/16 07:52:44;;;;;;;4.27;3.87;;;;;;;;;;5114134;28;20485;-72
2023/04/16 07:55:11;;;;;;;5.90;5.30;;;;;;;;;;5113971;28;20825;-72
2023/04/16 07:57:41;;;;;;;6.67;5.47;;;;;;;;;;5113999;28;20465;-72
2023/04/16 08:00:09;;;;;;;7.53;5.67;;;;;;;;;;5114085;28;20454;-72
2023/04/16 08:02:36;;;;;;;5.03;4.53;;;;;;;;;;5113042;28;20465;-72
2023/04/16 08:05:03;;;;;;;4.30;3.90;;;;;;;;;;5113547;28;20450;-71
2023/04/16 08:07:30;;;;;;;5.50;4.87;;;;;;;;;;5113685;28;20485;-71
2023/04/16 08:09:57;;;;;;;4.43;4.03;;;;;;;;;;5113802;28;20852;-72
2023/04/16 08:12:25;;;;;;;7.27;5.40;;;;;;;;;;5113400;28;20466;-72
2023/04/16 08:14:53;;;;;;;4.73;4.23;;;;;;;;;;5113391;28;20445;-72
2023/04/16 08:17:24;;;;;;;6.87;5.83;;;;;;;;;;5113676;28;20454;-72
2023/04/16 08:19:51;;;;;;;4.80;4.40;;;;;;;;;;5113731;28;20446;-72
2023/04/16 08:22:18;;;;;;;5.27;4.77;;;;;;;;;;5113319;28;20465;-72
2023/04/16 08:24:45;;;;;;;5.37;4.87;;;;;;;;;;5113485;28;20452;-72
2023/04/16 08:27:12;;;;;;;8.93;6.77;;;;;;;;;;5113305;28;20446;-72
2023/04/16 08:29:39;;;;;;;7.27;6.40;;;;;;;;;;5113313;28;20492;-72
2023/04/16 08:32:08;;;;;;;6.07;5.47;;;;;;;;;;5113381;28;20833;-72
2023/04/16 08:34:36;;;;;;;5.33;4.50;;;;;;;;;;5113229;28;20464;-72
2023/04/16 08:37:03;;;;;;;8.87;4.60;;;;;;;;;;5113428;28;20449;-72
2023/04/16 08:39:30;;;;;;;5.23;4.73;;;;;;;;;;5113433;28;20457;-72
2023/04/16 08:41:58;;;;;;;6.47;4.60;;;;;;;;;;5113434;28;20842;-72
2023/04/16 08:44:26;;;;;;;6.90;4.47;;;;;;;;;;5112783;28;20489;-72
2023/04/16 08:46:56;;;;;;;5.93;4.80;;;;;;;;;;5113433;28;20454;-72
2023/04/16 08:49:24;;;;;;;7.00;4.70;;;;;;;;;;5113420;28;20891;-72
2023/04/16 08:51:54;;;;;;;6.23;5.40;;;;;;;;;;5113691;28;20457;-72
2023/04/16 08:54:25;;;;;;;3.67;3.37;;;;;;;;;;5113002;28;20834;-72
2023/04/16 08:56:52;;;;;;;5.53;4.30;;;;;;;;;;5112865;28;20560;-73
2023/04/16 08:59:20;;;;;;;3.90;3.60;;;;;;;;;;5115968;28;20800;-72
2023/04/16 09:01:47;;;;;;;4.80;4.07;;;;;;;;;;5117055;28;20473;-72
2023/04/16 09:04:16;;;;;;;4.23;3.23;;;;;;;;;;5116186;28;20547;-72
2023/04/16 09:06:44;;;;;;;4.57;4.17;;;;;;;;;;5116980;28;20813;-72
2023/04/16 09:09:12;;;;;;;6.30;4.83;;;;;;;;;;5116695;28;20962;-73
2023/04/16 09:11:39;;;;;;;5.80;4.40;;;;;;;;;;5116790;28;20958;-72
2023/04/16 09:14:11;;;;;;;4.00;3.47;;;;;;;;;;5116708;28;20548;-72
2023/04/16 09:16:38;;;;;;;3.90;3.50;;;;;;;;;;5116938;28;20466;-72
2023/04/16 09:19:05;;;;;;;4.03;3.40;;;;;;;;;;5116720;28;20445;-72
2023/04/16 09:21:32;;;;;;;3.37;3.07;;;;;;;;;;5116513;27;20480;-73
2023/04/16 09:24:02;;;;;;;5.43;3.97;;;;;;;;;;5116428;28;20797;-73
2023/04/16 09:26:29;;;;;;;4.90;3.70;;;;;;;;;;5116435;28;20453;-72
2023/04/16 09:28:56;;;;;;;5.00;4.13;;;;;;;;;;5116627;28;20796;-72
2023/04/16 09:31:24;;;;;;;5.40;3.77;;;;;;;;;;5116392;28;20490;-73
2023/04/16 09:34:06;;;;;;;3.40;3.03;;;;;;;;;;5116569;28;20934;-72
2023/04/16 09:36:33;;;;;;;3.77;3.40;;;;;;;;;;5113887;27;20851;-74
2023/04/16 09:39:02;;;;;;;5.70;3.33;;;;;;;;;;5115425;28;20537;-74
2023/04/16 09:41:30;;;;;;;4.97;3.90;;;;;;;;;;5115427;28;20522;-72
2023/04/16 09:43:58;;;;;;;3.17;2.87;;;;;;;;;;5115880;28;20454;-72
2023/04/16 09:46:26;;;;;;;5.40;3.63;;;;;;;;;;5116665;28;20458;-74
2023/04/16 09:48:53;;;;;;;2.70;2.50;;;;;;;;;;5116614;28;20998;-73
2023/04/16 09:51:20;;;;;;;6.00;4.53;;;;;;;;;;5116638;28;20481;-73
2023/04/16 09:53:48;;;;;;;3.80;3.30;;;;;;;;;;5118403;28;20449;-73
2023/04/16 09:56:17;;;;;;;3.57;2.80;;;;;;;;;;5117639;28;20450;-73
2023/04/16 09:58:44;;;;;;;5.73;2.90;;;;;;;;;;5116196;28;20458;-73
2023/04/16 10:01:12;;;;;;;3.83;3.47;;;;;;;;;;5116155;28;20452;-73
2023/04/16 10:03:40;;;;;;;4.10;3.23;;;;;;;;;;5116683;28;20780;-73
2023/04/16 10:06:09;;;;;;;2.90;2.53;;;;;;;;;;5115827;28;20449;-74
2023/04/16 10:08:36;;;;;;;3.33;2.67;;;;;;;;;;5115733;27;20445;-74
2023/04/16 10:11:03;;;;;;;3.80;2.43;;;;;;;;;;5115069;28;20489;-74
2023/04/16 10:13:32;;;;;;;4.30;2.50;;;;;;;;;;5116275;28;20449;-74
2023/04/16 10:16:00;;;;;;;3.47;2.63;;;;;;;;;;5115390;28;20811;-74
2023/04/16 10:18:28;;;;;;;2.63;2.30;;;;;;;;;;5115477;28;20449;-74
2023/04/16 10:20:55;;;;;;;3.60;2.90;;;;;;;;;;5115848;27;20446;-74
2023/04/16 10:23:23;;;;;;;3.30;2.83;;;;;;;;;;5116709;28;20472;-75
2023/04/16 10:25:51;;;;;;;3.27;2.97;;;;;;;;;;5116801;28;20457;-74
2023/04/16 10:28:18;;;;;;;2.40;2.20;;;;;;;;;;5115027;28;20450;-73
2023/04/16 10:30:52;;;;;;;2.73;2.33;;;;;;;;;;5115079;28;20492;-73
2023/04/16 10:33:21;;;;;;;6.00;4.37;;;;;;;;;;5115090;28;20474;-72
2023/04/16 10:35:49;;;;;;;3.00;2.60;;;;;;;;;;5115040;28;20449;-74
2023/04/16 10:38:23;;;;;;;3.70;3.30;;;;;;;;;;5115545;28;20460;-75
2023/04/16 10:40:50;;;;;;;4.10;2.53;;;;;;;;;;5115216;28;20865;-75
2023/04/16 10:43:18;;;;;;;4.00;1.80;;;;;;;;;;5114846;28;20474;-75
2023/04/16 10:45:48;;;;;;;3.23;2.80;;;;;;;;;;5115095;28;20892;-75
2023/04/16 10:48:19;;;;;;;2.40;2.20;;;;;;;;;;5115159;28;20510;-74
2023/04/16 10:50:55;;;;;;;2.17;1.97;;;;;;;;;;5115127;28;20482;-76
2023/04/16 10:53:24;;;;;;;1.70;1.50;;;;;;;;;;5115172;27;20465;-74
2023/04/16 10:55:58;;;;;;;2.20;1.87;;;;;;;;;;5115047;28;20553;-75
2023/04/16 10:58:29;;;;;;;3.00;1.60;;;;;;;;;;5114746;28;20446;-75
2023/04/16 11:01:00;;;;;;;5.03;1.70;;;;;;;;;;5114982;28;20495;-74
2023/04/16 11:03:31;;;;;;;2.10;1.90;;;;;;;;;;5114249;28;20830;-74
2023/04/16 11:06:11;;;;;;;1.90;1.53;;;;;;;;;;5114943;28;20973;-73
2023/04/16 11:08:39;;;;;;;3.40;1.70;;;;;;;;;;5114614;28;20450;-73
2023/04/16 11:11:06;;;;;;;2.27;2.03;;;;;;;;;;5114257;28;20486;-73
2023/04/16 11:13:34;;;;;;;2.40;2.00;;;;;;;;;;5114491;28;20805;-73
2023/04/16 11:16:03;;;;;;;3.73;2.60;;;;;;;;;;5114255;28;20454;-73
2023/04/16 11:18:30;;;;;;;2.17;1.67;;;;;;;;;;5114397;28;20445;-75
2023/04/16 11:20:58;;;;;;;2.20;2.00;;;;;;;;;;5114783;28;20875;-74
2023/04/16 11:23:26;;;;;;;3.63;3.20;;;;;;;;;;5115202;28;20982;-75
2023/04/16 11:25:56;;;;;;;2.00;1.70;;;;;;;;;;5114845;28;20456;-74
2023/04/16 11:28:33;;;;;;;2.00;1.80;;;;;;;;;;5114472;28;20504;-73
2023/04/16 11:31:10;;;;;;;2.30;1.80;;;;;;;;;;5114284;28;20488;-72
2023/04/16 11:33:39;;;;;;;6.43;1.90;;;;;;;;;;5113567;28;20462;-73
2023/04/16 11:36:07;;;;;;;2.47;1.97;;;;;;;;;;5113556;28;20801;-73
2023/04/16 11:38:35;;;;;;;3.00;2.07;;;;;;;;;;5113661;28;20446;-73
2023/04/16 11:41:03;;;;;;;3.20;2.10;;;;;;;;;;5104162;28;20509;-72
2023/04/16 11:43:30;;;;;;;5.73;1.60;;;;;;;;;;5097038;28;20453;-74
2023/04/16 11:45:58;;;;;;;2.43;2.10;;;;;;;;;;5094309;28;20459;-73
2023/04/16 11:48:25;;;;;;;2.43;1.90;;;;;;;;;;5093746;28;20473;-73
2023/04/16 11:50:58;;;;;;;1.93;1.63;;;;;;;;;;5093206;28;20521;-73
2023/04/16 11:53:25;;;;;;;2.07;1.67;;;;;;;;;;5093393;28;20514;-72
2023/04/16 11:55:53;;;;;;;3.50;2.67;;;;;;;;;;5093561;28;20439;-77
2023/04/16 11:58:22;;;;;;;4.43;2.63;;;;;;;;;;5093501;28;20473;-74
2023/04/16 12:00:52;;;;;;;6.70;4.50;;;;;;;;;;5095715;28;20469;-73
2023/04/16 12:03:19;;;;;;;5.70;4.27;;;;;;;;;;5094243;28;20478;-72
2023/04/16 12:05:46;;;;;;;4.00;3.60;;;;;;;;;;5107379;28;20468;-74
2023/04/16 12:08:28;;;;;;;2.67;2.40;;;;;;;;;;5114005;28;20453;-74
2023/04/16 12:10:56;;;;;;;3.13;2.60;;;;;;;;;;5113334;28;20477;-74
2023/04/16 12:13:26;;;;;;;2.90;2.53;;;;;;;;;;5093189;28;20528;-74
2023/04/16 12:15:54;;;;;;;4.60;2.30;;;;;;;;;;5093428;28;20469;-74
2023/04/16 12:18:22;;;;;;;4.43;2.57;;;;;;;;;;5093493;28;20527;-73
2023/04/16 12:20:50;;;;;;;2.93;2.30;;;;;;;;;;5093001;28;20458;-75
2023/04/16 12:23:25;;;;;;;3.70;2.33;;;;;;;;;;5093431;28;20501;-74
2023/04/16 12:25:53;;;;;;;1.80;1.50;;;;;;;;;;5093176;28;20541;-74
2023/04/16 12:28:30;;;;;;;1.87;1.60;;;;;;;;;;5108204;28;20529;-74
2023/04/16 12:30:57;;;;;;;3.43;2.50;;;;;;;;;;5113205;28;20473;-74
2023/04/16 12:33:25;;;;;;;1.90;1.70;;;;;;;;;;5106856;28;21244;-74
2023/04/16 12:35:52;;;;;;;3.60;2.67;;;;;;;;;;5096279;28;20466;-74
2023/04/16 12:38:19;;;;;;;11.57;3.70;;;;;;;;;;5096402;28;20483;-72
2023/04/16 12:40:48;;;;;;;2.60;2.40;;;;;;;;;;5095983;28;20477;-76
2023/04/16 12:43:15;;;;;;;3.57;2.70;;;;;;;;;;5096632;28;20476;-75
2023/04/16 12:45:43;;;;;;;2.50;2.00;;;;;;;;;;5097962;28;20462;-74
2023/04/16 12:48:10;;;;;;;2.83;2.40;;;;;;;;;;5095865;28;20832;-73
2023/04/16 12:50:38;;;;;;;1.90;1.50;;;;;;;;;;5096202;28;20486;-75
2023/04/16 12:53:05;;;;;;;2.50;1.90;;;;;;;;;;5095653;28;20469;-75
2023/04/16 12:55:32;;;;;;;1.90;1.70;;;;;;;;;;5096043;28;20474;-76
2023/04/16 12:58:01;;;;;;;2.57;2.13;;;;;;;;;;5096008;28;20908;-75
2023/04/16 13:00:28;;;;;;;3.00;2.23;;;;;;;;;;5096004;28;20445;-73
2023/04/16 13:02:57;;;;;;;2.13;1.80;;;;;;;;;;5095976;28;20480;-73
2023/04/16 13:05:25;;;;;;;3.13;2.80;;;;;;;;;;5095613;28;20451;-73
2023/04/16 13:07:52;;;;;;;3.70;2.53;;;;;;;;;;5095690;28;20967;-75
2023/04/16 13:10:22;;;;;;;2.80;2.20;;;;;;;;;;5095321;28;20443;-74
2023/04/16 13:13:02;;;;;;;2.63;2.00;;;;;;;;;;5096663;28;20530;-74
2023/04/16 13:15:33;;;;;;;2.40;2.03;;;;;;;;;;5095905;28;20474;-74
2023/04/16 13:18:00;;;;;;;3.03;2.10;;;;;;;;;;5095757;28;20557;-74
2023/04/16 13:20:27;;;;;;;2.87;2.13;;;;;;;;;;5095600;28;20856;-74
2023/04/16 13:22:55;;;;;;;2.40;1.87;;;;;;;;;;5094962;28;20880;-74
2023/04/16 13:25:23;;;;;;;2.13;1.87;;;;;;;;;;5094594;28;20558;-74
2023/04/16 13:27:50;;;;;;;2.57;2.10;;;;;;;;;;5095323;28;20469;-74
2023/04/16 13:30:17;;;;;;;5.77;2.10;;;;;;;;;;5095697;28;20677;-74
2023/04/16 13:32:45;;;;;;;3.60;3.30;;;;;;;;;;5095746;28;20486;-74
2023/04/16 13:35:13;;;;;;;2.27;1.93;;;;;;;;;;5095801;28;20446;-72
2023/04/16 13:37:40;;;;;;;2.30;2.10;;;;;;;;;;5096031;28;20451;-72
2023/04/16 13:40:08;;;;;;;3.97;2.60;;;;;;;;;;5096113;28;20458;-74
2023/04/16 13:42:35;;;;;;;2.30;1.83;;;;;;;;;;5096257;28;20506;-73
2023/04/16 13:45:03;;;;;;;2.10;1.87;;;;;;;;;;5094404;28;20470;-73
2023/04/16 13:47:30;;;;;;;2.30;1.70;;;;;;;;;;5095852;28;20487;-73
2023/04/16 13:49:58;;;;;;;3.23;1.43;;;;;;;;;;5096132;28;20482;-73
2023/04/16 13:52:26;;;;;;;2.23;1.60;;;;;;;;;;5095484;28;20494;-73
2023/04/16 13:54:53;;;;;;;3.10;1.33;;;;;;;;;;5095553;28;20462;-74
2023/04/16 13:57:20;;;;;;;2.73;1.83;;;;;;;;;;5095739;28;20970;-73
2023/04/16 13:59:48;;;;;;;1.73;1.23;;;;;;;;;;5095709;28;20459;-73
2023/04/16 14:02:15;;;;;;;3.03;1.20;;;;;;;;;;5096071;28;20972;-73
2023/04/16 14:04:44;;;;;;;2.60;2.17;;;;;;;;;;5095532;28;20450;-74
2023/04/16 14:07:13;;;;;;;1.60;1.17;;;;;;;;;;5096113;28;20454;-75
2023/04/16 14:09:40;;;;;;;1.40;1.00;;;;;;;;;;5095937;28;20500;-75
2023/04/16 14:12:08;;;;;;;1.40;1.00;;;;;;;;;;5095358;28;20513;-74
2023/04/16 14:14:35;;;;;;;1.40;1.10;;;;;;;;;;5095609;28;20541;-74
2023/04/16 14:17:03;;;;;;;1.20;0.97;;;;;;;;;;5095523;28;20931;-74
2023/04/16 14:19:31;;;;;;;1.70;1.00;;;;;;;;;;5095206;28;20439;-75
2023/04/16 14:21:58;;;;;;;2.30;1.20;;;;;;;;;;5095058;28;20462;-75
2023/04/16 14:24:26;;;;;;;1.97;1.37;;;;;;;;;;5095403;28;20539;-74
2023/04/16 14:26:53;;;;;;;1.70;1.10;;;;;;;;;;5095159;28;20458;-73
2023/04/16 14:29:20;;;;;;;1.70;1.30;;;;;;;;;;5095318;28;20447;-73
2023/04/16 14:31:49;;;;;;;2.00;1.50;;;;;;;;;;5094879;28;20482;-73
2023/04/16 14:34:16;;;;;;;1.73;1.07;;;;;;;;;;5095267;28;20450;-74
2023/04/16 14:36:44;;;;;;;1.37;1.00;;;;;;;;;;5094940;28;20462;-74
2023/04/16 14:39:11;;;;;;;1.80;1.53;;;;;;;;;;5095266;28;20443;-74
2023/04/16 14:41:40;;;;;;;1.83;1.17;;;;;;;;;;5095638;28;20483;-74